sensor_id;sensor_type;location;lat;lon;timestamp;P1;durP1;ratioP1;P2;durP2;ratioP2
23015;SDS011;11674;52.428;13.584;2022-08-14T00:00:21;14.60;;;12.23;;
23015;SDS011;11674;52.428;13.584;2022-08-14T00:02:53;14.40;;;11.98;;
23015;SDS011;11674;52.428;13.584;2022-08-14T00:05:25;15.35;;;12.40;;
23015;SDS011;11674;52.428;13.584;2022-08-14T00:07:57;16.35;;;12.48;;
23015;SDS011;11674;52.428;13.584;2022-08-14T00:10:29;16.95;;;12.57;;
23015;SDS011;11674;52.428;13.584;2022-08-14T00:13:01;15.73;;;12.98;;
23015;SDS011;11674;52.428;13.584;2022-08-14T00:15:35;15.65;;;12.05;;
23015;SDS011;11674;52.428;13.584;2022-08-14T00:18:09;18.25;;;12.60;;
23015;SDS011;11674;52.428;13.584;2022-08-14T00:20:43;14.75;;;12.40;;
23015;SDS011;11674;52.428;13.584;2022-08-14T00:23:11;17.70;;;12.85;;
23015;SDS011;11674;52.428;13.584;2022-08-14T00:25:47;15.23;;;11.70;;
23015;SDS011;11674;52.428;13.584;2022-08-14T00:28:24;13.57;;;12.13;;
23015;SDS011;11674;52.428;13.584;2022-08-14T00:30:56;19.05;;;11.57;;
23015;SDS011;11674;52.428;13.584;2022-08-14T00:33:28;17.45;;;11.73;;
23015;SDS011;11674;52.428;13.584;2022-08-14T00:36:00;12.90;;;11.07;;
23015;SDS011;11674;52.428;13.584;2022-08-14T00:38:32;13.23;;;11.50;;
23015;SDS011;11674;52.428;13.584;2022-08-14T00:41:04;14.10;;;11.75;;
23015;SDS011;11674;52.428;13.584;2022-08-14T00:43:38;16.58;;;10.45;;
23015;SDS011;11674;52.428;13.584;2022-08-14T00:46:10;13.50;;;9.52;;
23015;SDS011;11674;52.428;13.584;2022-08-14T00:48:43;16.13;;;9.90;;
23015;SDS011;11674;52.428;13.584;2022-08-14T00:51:15;17.73;;;10.35;;
23015;SDS011;11674;52.428;13.584;2022-08-14T00:53:47;13.80;;;9.95;;
23015;SDS011;11674;52.428;13.584;2022-08-14T00:56:19;14.82;;;10.90;;
23015;SDS011;11674;52.428;13.584;2022-08-14T00:58:51;15.07;;;10.68;;
23015;SDS011;11674;52.428;13.584;2022-08-14T01:01:23;11.23;;;10.02;;
23015;SDS011;11674;52.428;13.584;2022-08-14T01:03:55;12.55;;;10.82;;
23015;SDS011;11674;52.428;13.584;2022-08-14T01:06:28;14.88;;;11.20;;
23015;SDS011;11674;52.428;13.584;2022-08-14T01:09:00;14.55;;;10.43;;
23015;SDS011;11674;52.428;13.584;2022-08-14T01:11:33;11.15;;;9.77;;
23015;SDS011;11674;52.428;13.584;2022-08-14T01:14:08;24.33;;;10.25;;
23015;SDS011;11674;52.428;13.584;2022-08-14T01:16:40;15.57;;;11.10;;
23015;SDS011;11674;52.428;13.584;2022-08-14T01:19:12;13.75;;;11.07;;
23015;SDS011;11674;52.428;13.584;2022-08-14T01:21:45;12.50;;;11.15;;
23015;SDS011;11674;52.428;13.584;2022-08-14T01:24:18;13.20;;;10.45;;
23015;SDS011;11674;52.428;13.584;2022-08-14T01:26:50;15.25;;;10.13;;
23015;SDS011;11674;52.428;13.584;2022-08-14T01:29:23;12.15;;;9.57;;
23015;SDS011;11674;52.428;13.584;2022-08-14T01:31:55;15.88;;;9.23;;
23015;SDS011;11674;52.428;13.584;2022-08-14T01:34:20;11.35;;;9.75;;
23015;SDS011;11674;52.428;13.584;2022-08-14T01:36:52;13.35;;;9.00;;
23015;SDS011;11674;52.428;13.584;2022-08-14T01:39:24;12.02;;;9.20;;
23015;SDS011;11674;52.428;13.584;2022-08-14T01:41:57;10.07;;;8.65;;
23015;SDS011;11674;52.428;13.584;2022-08-14T01:44:29;11.18;;;9.30;;
23015;SDS011;11674;52.428;13.584;2022-08-14T01:47:04;11.45;;;9.27;;
23015;SDS011;11674;52.428;13.584;2022-08-14T01:49:40;12.23;;;9.35;;
23015;SDS011;11674;52.428;13.584;2022-08-14T01:52:13;14.10;;;9.77;;
23015;SDS011;11674;52.428;13.584;2022-08-14T01:54:45;13.15;;;9.88;;
23015;SDS011;11674;52.428;13.584;2022-08-14T01:57:17;12.82;;;8.82;;
23015;SDS011;11674;52.428;13.584;2022-08-14T01:59:49;10.70;;;8.50;;
23015;SDS011;11674;52.428;13.584;2022-08-14T02:02:21;9.50;;;8.52;;
23015;SDS011;11674;52.428;13.584;2022-08-14T02:04:53;14.18;;;9.60;;
23015;SDS011;11674;52.428;13.584;2022-08-14T02:07:25;9.68;;;8.68;;
23015;SDS011;11674;52.428;13.584;2022-08-14T02:09:57;11.15;;;8.82;;
23015;SDS011;11674;52.428;13.584;2022-08-14T02:12:29;11.55;;;9.65;;
23015;SDS011;11674;52.428;13.584;2022-08-14T02:15:02;10.82;;;9.73;;
23015;SDS011;11674;52.428;13.584;2022-08-14T02:17:35;11.40;;;9.80;;
23015;SDS011;11674;52.428;13.584;2022-08-14T02:20:07;13.70;;;9.85;;
23015;SDS011;11674;52.428;13.584;2022-08-14T02:22:39;10.98;;;9.48;;
23015;SDS011;11674;52.428;13.584;2022-08-14T02:25:11;11.35;;;9.25;;
23015;SDS011;11674;52.428;13.584;2022-08-14T02:27:43;14.35;;;9.27;;
23015;SDS011;11674;52.428;13.584;2022-08-14T02:30:15;11.25;;;9.18;;
23015;SDS011;11674;52.428;13.584;2022-08-14T02:32:47;11.82;;;9.18;;
23015;SDS011;11674;52.428;13.584;2022-08-14T02:35:19;10.65;;;9.43;;
23015;SDS011;11674;52.428;13.584;2022-08-14T02:37:51;12.20;;;9.48;;
23015;SDS011;11674;52.428;13.584;2022-08-14T02:40:23;11.93;;;8.82;;
23015;SDS011;11674;52.428;13.584;2022-08-14T02:42:55;11.00;;;9.27;;
23015;SDS011;11674;52.428;13.584;2022-08-14T02:45:27;11.15;;;9.52;;
23015;SDS011;11674;52.428;13.584;2022-08-14T02:48:00;16.30;;;9.20;;
23015;SDS011;11674;52.428;13.584;2022-08-14T02:50:32;13.60;;;9.57;;
23015;SDS011;11674;52.428;13.584;2022-08-14T02:53:04;11.10;;;9.70;;
23015;SDS011;11674;52.428;13.584;2022-08-14T02:55:36;12.20;;;9.07;;
23015;SDS011;11674;52.428;13.584;2022-08-14T02:58:09;12.13;;;9.32;;
23015;SDS011;11674;52.428;13.584;2022-08-14T03:00:41;14.93;;;9.88;;
23015;SDS011;11674;52.428;13.584;2022-08-14T03:03:13;10.27;;;8.88;;
23015;SDS011;11674;52.428;13.584;2022-08-14T03:05:45;10.52;;;9.43;;
23015;SDS011;11674;52.428;13.584;2022-08-14T03:08:17;16.98;;;9.63;;
23015;SDS011;11674;52.428;13.584;2022-08-14T03:10:50;12.65;;;8.88;;
23015;SDS011;11674;52.428;13.584;2022-08-14T03:13:22;12.30;;;9.63;;
23015;SDS011;11674;52.428;13.584;2022-08-14T03:15:54;12.43;;;8.88;;
23015;SDS011;11674;52.428;13.584;2022-08-14T03:18:26;13.48;;;9.50;;
23015;SDS011;11674;52.428;13.584;2022-08-14T03:20:59;11.02;;;9.82;;
23015;SDS011;11674;52.428;13.584;2022-08-14T03:23:33;14.50;;;9.68;;
23015;SDS011;11674;52.428;13.584;2022-08-14T03:26:07;10.80;;;9.70;;
23015;SDS011;11674;52.428;13.584;2022-08-14T03:28:40;14.27;;;10.13;;
23015;SDS011;11674;52.428;13.584;2022-08-14T03:31:14;11.00;;;9.85;;
23015;SDS011;11674;52.428;13.584;2022-08-14T03:33:47;11.73;;;9.65;;
23015;SDS011;11674;52.428;13.584;2022-08-14T03:36:19;12.00;;;10.32;;
23015;SDS011;11674;52.428;13.584;2022-08-14T03:38:51;11.25;;;10.00;;
23015;SDS011;11674;52.428;13.584;2022-08-14T03:41:24;12.88;;;9.50;;
23015;SDS011;11674;52.428;13.584;2022-08-14T03:43:58;14.32;;;9.48;;
23015;SDS011;11674;52.428;13.584;2022-08-14T03:46:32;11.77;;;9.07;;
23015;SDS011;11674;52.428;13.584;2022-08-14T03:49:06;13.30;;;9.70;;
23015;SDS011;11674;52.428;13.584;2022-08-14T03:51:38;13.90;;;10.43;;
23015;SDS011;11674;52.428;13.584;2022-08-14T03:54:10;11.18;;;9.52;;
23015;SDS011;11674;52.428;13.584;2022-08-14T03:56:42;13.57;;;9.57;;
23015;SDS011;11674;52.428;13.584;2022-08-14T03:59:14;10.88;;;9.55;;
23015;SDS011;11674;52.428;13.584;2022-08-14T04:01:46;13.68;;;9.60;;
23015;SDS011;11674;52.428;13.584;2022-08-14T04:04:18;10.40;;;9.30;;
23015;SDS011;11674;52.428;13.584;2022-08-14T04:06:50;10.70;;;8.68;;
23015;SDS011;11674;52.428;13.584;2022-08-14T04:09:15;13.87;;;8.43;;
23015;SDS011;11674;52.428;13.584;2022-08-14T04:11:47;18.60;;;9.75;;
23015;SDS011;11674;52.428;13.584;2022-08-14T04:14:19;11.02;;;9.23;;
23015;SDS011;11674;52.428;13.584;2022-08-14T04:16:51;10.48;;;9.27;;
23015;SDS011;11674;52.428;13.584;2022-08-14T04:19:23;10.60;;;9.05;;
23015;SDS011;11674;52.428;13.584;2022-08-14T04:21:55;11.52;;;9.00;;
23015;SDS011;11674;52.428;13.584;2022-08-14T04:24:27;10.77;;;9.18;;
23015;SDS011;11674;52.428;13.584;2022-08-14T04:26:59;16.10;;;9.70;;
23015;SDS011;11674;52.428;13.584;2022-08-14T04:29:31;12.90;;;8.90;;
23015;SDS011;11674;52.428;13.584;2022-08-14T04:32:10;10.13;;;8.55;;
23015;SDS011;11674;52.428;13.584;2022-08-14T04:34:43;10.47;;;9.30;;
23015;SDS011;11674;52.428;13.584;2022-08-14T04:37:18;11.45;;;8.95;;
23015;SDS011;11674;52.428;13.584;2022-08-14T04:39:51;16.05;;;9.15;;
23015;SDS011;11674;52.428;13.584;2022-08-14T04:42:31;12.75;;;9.32;;
23015;SDS011;11674;52.428;13.584;2022-08-14T04:45:03;9.77;;;8.63;;
23015;SDS011;11674;52.428;13.584;2022-08-14T04:47:35;13.75;;;9.02;;
23015;SDS011;11674;52.428;13.584;2022-08-14T04:50:07;19.48;;;10.05;;
23015;SDS011;11674;52.428;13.584;2022-08-14T04:52:39;10.85;;;8.90;;
23015;SDS011;11674;52.428;13.584;2022-08-14T04:55:11;11.52;;;9.30;;
23015;SDS011;11674;52.428;13.584;2022-08-14T04:57:43;11.73;;;9.18;;
23015;SDS011;11674;52.428;13.584;2022-08-14T05:00:15;12.85;;;9.70;;
23015;SDS011;11674;52.428;13.584;2022-08-14T05:02:48;10.93;;;9.20;;
23015;SDS011;11674;52.428;13.584;2022-08-14T05:05:20;9.88;;;8.70;;
23015;SDS011;11674;52.428;13.584;2022-08-14T05:07:52;10.73;;;9.00;;
23015;SDS011;11674;52.428;13.584;2022-08-14T05:10:24;12.27;;;8.73;;
23015;SDS011;11674;52.428;13.584;2022-08-14T05:12:56;10.13;;;8.13;;
23015;SDS011;11674;52.428;13.584;2022-08-14T05:15:21;9.43;;;8.30;;
23015;SDS011;11674;52.428;13.584;2022-08-14T05:17:53;9.88;;;8.82;;
23015;SDS011;11674;52.428;13.584;2022-08-14T05:20:25;10.48;;;9.07;;
23015;SDS011;11674;52.428;13.584;2022-08-14T05:22:50;10.97;;;8.97;;
23015;SDS011;11674;52.428;13.584;2022-08-14T05:25:22;12.23;;;9.23;;
23015;SDS011;11674;52.428;13.584;2022-08-14T05:27:54;10.20;;;8.90;;
23015;SDS011;11674;52.428;13.584;2022-08-14T05:30:26;17.02;;;9.75;;
23015;SDS011;11674;52.428;13.584;2022-08-14T05:32:58;11.18;;;9.18;;
23015;SDS011;11674;52.428;13.584;2022-08-14T05:35:30;12.60;;;9.18;;
23015;SDS011;11674;52.428;13.584;2022-08-14T05:38:10;11.40;;;8.93;;
23015;SDS011;11674;52.428;13.584;2022-08-14T05:40:43;12.37;;;8.33;;
23015;SDS011;11674;52.428;13.584;2022-08-14T05:43:15;15.93;;;9.50;;
23015;SDS011;11674;52.428;13.584;2022-08-14T05:45:47;11.10;;;9.20;;
23015;SDS011;11674;52.428;13.584;2022-08-14T05:48:19;10.85;;;9.65;;
23015;SDS011;11674;52.428;13.584;2022-08-14T05:50:44;11.10;;;9.13;;
23015;SDS011;11674;52.428;13.584;2022-08-14T05:53:16;12.00;;;9.38;;
23015;SDS011;11674;52.428;13.584;2022-08-14T05:55:48;12.60;;;9.25;;
23015;SDS011;11674;52.428;13.584;2022-08-14T05:58:20;10.52;;;8.88;;
23015;SDS011;11674;52.428;13.584;2022-08-14T06:00:53;11.95;;;9.52;;
23015;SDS011;11674;52.428;13.584;2022-08-14T06:03:25;10.63;;;9.52;;
23015;SDS011;11674;52.428;13.584;2022-08-14T06:05:57;11.13;;;9.20;;
23015;SDS011;11674;52.428;13.584;2022-08-14T06:08:30;14.90;;;9.45;;
23015;SDS011;11674;52.428;13.584;2022-08-14T06:11:05;13.45;;;9.88;;
23015;SDS011;11674;52.428;13.584;2022-08-14T06:13:39;11.63;;;9.43;;
23015;SDS011;11674;52.428;13.584;2022-08-14T06:16:15;13.55;;;9.48;;
23015;SDS011;11674;52.428;13.584;2022-08-14T06:18:48;15.95;;;10.00;;
23015;SDS011;11674;52.428;13.584;2022-08-14T06:21:20;10.52;;;9.52;;
23015;SDS011;11674;52.428;13.584;2022-08-14T06:23:53;11.35;;;10.10;;
23015;SDS011;11674;52.428;13.584;2022-08-14T06:26:25;12.40;;;9.90;;
23015;SDS011;11674;52.428;13.584;2022-08-14T06:28:57;18.20;;;10.43;;
23015;SDS011;11674;52.428;13.584;2022-08-14T06:31:29;14.00;;;10.05;;
23015;SDS011;11674;52.428;13.584;2022-08-14T06:34:10;12.10;;;10.20;;
23015;SDS011;11674;52.428;13.584;2022-08-14T06:36:42;12.38;;;9.70;;
23015;SDS011;11674;52.428;13.584;2022-08-14T06:39:14;10.85;;;9.73;;
23015;SDS011;11674;52.428;13.584;2022-08-14T06:41:46;12.95;;;9.75;;
23015;SDS011;11674;52.428;13.584;2022-08-14T06:44:18;12.68;;;10.68;;
23015;SDS011;11674;52.428;13.584;2022-08-14T06:46:50;11.95;;;10.52;;
23015;SDS011;11674;52.428;13.584;2022-08-14T06:49:24;12.68;;;10.52;;
23015;SDS011;11674;52.428;13.584;2022-08-14T06:51:56;13.73;;;10.18;;
23015;SDS011;11674;52.428;13.584;2022-08-14T06:54:28;10.90;;;9.45;;
23015;SDS011;11674;52.428;13.584;2022-08-14T06:57:00;14.82;;;9.40;;
23015;SDS011;11674;52.428;13.584;2022-08-14T06:59:32;15.93;;;10.35;;
23015;SDS011;11674;52.428;13.584;2022-08-14T07:02:04;11.82;;;10.23;;
23015;SDS011;11674;52.428;13.584;2022-08-14T07:04:36;17.75;;;9.90;;
23015;SDS011;11674;52.428;13.584;2022-08-14T07:07:08;16.92;;;9.57;;
23015;SDS011;11674;52.428;13.584;2022-08-14T07:09:40;13.02;;;9.90;;
23015;SDS011;11674;52.428;13.584;2022-08-14T07:12:12;11.10;;;8.85;;
23015;SDS011;11674;52.428;13.584;2022-08-14T07:14:44;10.63;;;9.18;;
23015;SDS011;11674;52.428;13.584;2022-08-14T07:17:16;10.65;;;9.52;;
23015;SDS011;11674;52.428;13.584;2022-08-14T07:19:48;11.63;;;8.88;;
23015;SDS011;11674;52.428;13.584;2022-08-14T07:22:20;9.90;;;8.90;;
23015;SDS011;11674;52.428;13.584;2022-08-14T07:24:52;11.63;;;8.70;;
23015;SDS011;11674;52.428;13.584;2022-08-14T07:27:24;13.10;;;8.70;;
23015;SDS011;11674;52.428;13.584;2022-08-14T07:29:56;9.35;;;8.40;;
23015;SDS011;11674;52.428;13.584;2022-08-14T07:32:28;10.13;;;8.85;;
23015;SDS011;11674;52.428;13.584;2022-08-14T07:35:00;9.35;;;8.18;;
23015;SDS011;11674;52.428;13.584;2022-08-14T07:37:32;10.75;;;9.63;;
23015;SDS011;11674;52.428;13.584;2022-08-14T07:40:04;9.77;;;8.77;;
23015;SDS011;11674;52.428;13.584;2022-08-14T07:42:36;10.80;;;9.13;;
23015;SDS011;11674;52.428;13.584;2022-08-14T07:45:08;11.13;;;8.75;;
23015;SDS011;11674;52.428;13.584;2022-08-14T07:47:40;11.23;;;9.20;;
23015;SDS011;11674;52.428;13.584;2022-08-14T07:50:14;12.85;;;8.80;;
23015;SDS011;11674;52.428;13.584;2022-08-14T07:52:47;9.63;;;8.63;;
23015;SDS011;11674;52.428;13.584;2022-08-14T07:55:19;11.20;;;8.30;;
23015;SDS011;11674;52.428;13.584;2022-08-14T07:57:51;13.30;;;8.30;;
23015;SDS011;11674;52.428;13.584;2022-08-14T08:00:23;12.07;;;8.15;;
23015;SDS011;11674;52.428;13.584;2022-08-14T08:02:56;10.70;;;8.40;;
23015;SDS011;11674;52.428;13.584;2022-08-14T08:05:28;10.55;;;7.82;;
23015;SDS011;11674;52.428;13.584;2022-08-14T08:08:00;11.13;;;8.45;;
23015;SDS011;11674;52.428;13.584;2022-08-14T08:10:34;9.02;;;7.75;;
23015;SDS011;11674;52.428;13.584;2022-08-14T08:13:14;10.75;;;8.20;;
23015;SDS011;11674;52.428;13.584;2022-08-14T08:15:49;10.35;;;8.13;;
23015;SDS011;11674;52.428;13.584;2022-08-14T08:18:23;9.27;;;8.07;;
23015;SDS011;11674;52.428;13.584;2022-08-14T08:20:55;8.90;;;8.00;;
23015;SDS011;11674;52.428;13.584;2022-08-14T08:23:28;9.20;;;7.88;;
23015;SDS011;11674;52.428;13.584;2022-08-14T08:26:01;9.85;;;6.82;;
23015;SDS011;11674;52.428;13.584;2022-08-14T08:28:33;9.73;;;7.03;;
23015;SDS011;11674;52.428;13.584;2022-08-14T08:31:05;8.45;;;6.95;;
23015;SDS011;11674;52.428;13.584;2022-08-14T08:33:38;8.05;;;6.40;;
23015;SDS011;11674;52.428;13.584;2022-08-14T08:36:11;7.88;;;7.07;;
23015;SDS011;11674;52.428;13.584;2022-08-14T08:38:43;12.38;;;6.65;;
23015;SDS011;11674;52.428;13.584;2022-08-14T08:41:15;7.47;;;5.75;;
23015;SDS011;11674;52.428;13.584;2022-08-14T08:43:47;7.30;;;6.05;;
23015;SDS011;11674;52.428;13.584;2022-08-14T08:46:20;8.18;;;5.63;;
23015;SDS011;11674;52.428;13.584;2022-08-14T08:48:55;10.93;;;5.97;;
23015;SDS011;11674;52.428;13.584;2022-08-14T08:51:30;6.55;;;5.85;;
23015;SDS011;11674;52.428;13.584;2022-08-14T09:02:00;7.60;;;5.85;;
23015;SDS011;11674;52.428;13.584;2022-08-14T09:04:40;6.75;;;6.05;;
23015;SDS011;11674;52.428;13.584;2022-08-14T09:07:14;12.00;;;5.43;;
23015;SDS011;11674;52.428;13.584;2022-08-14T09:09:46;12.48;;;5.10;;
23015;SDS011;11674;52.428;13.584;2022-08-14T09:12:18;7.60;;;4.82;;
23015;SDS011;11674;52.428;13.584;2022-08-14T09:14:50;7.93;;;4.70;;
23015;SDS011;11674;52.428;13.584;2022-08-14T09:17:22;6.88;;;4.38;;
23015;SDS011;11674;52.428;13.584;2022-08-14T09:19:54;9.70;;;4.57;;
23015;SDS011;11674;52.428;13.584;2022-08-14T09:22:27;6.68;;;4.65;;
23015;SDS011;11674;52.428;13.584;2022-08-14T09:25:00;6.78;;;4.70;;
23015;SDS011;11674;52.428;13.584;2022-08-14T09:27:32;6.93;;;4.15;;
23015;SDS011;11674;52.428;13.584;2022-08-14T09:30:05;8.68;;;4.03;;
23015;SDS011;11674;52.428;13.584;2022-08-14T09:32:57;6.70;;;4.00;;
23015;SDS011;11674;52.428;13.584;2022-08-14T09:38:56;4.82;;;4.07;;
23015;SDS011;11674;52.428;13.584;2022-08-14T09:44:49;5.13;;;3.10;;
23015;SDS011;11674;52.428;13.584;2022-08-14T09:47:47;6.03;;;3.35;;
23015;SDS011;11674;52.428;13.584;2022-08-14T09:50:24;7.05;;;3.17;;
23015;SDS011;11674;52.428;13.584;2022-08-14T09:53:05;7.30;;;3.05;;
23015;SDS011;11674;52.428;13.584;2022-08-14T09:55:38;5.45;;;3.10;;
23015;SDS011;11674;52.428;13.584;2022-08-14T09:58:14;4.28;;;3.22;;
23015;SDS011;11674;52.428;13.584;2022-08-14T10:00:48;4.88;;;3.25;;
23015;SDS011;11674;52.428;13.584;2022-08-14T10:03:25;6.13;;;3.28;;
23015;SDS011;11674;52.428;13.584;2022-08-14T10:08:45;3.75;;;2.67;;
23015;SDS011;11674;52.428;13.584;2022-08-14T10:11:23;6.90;;;2.85;;
23015;SDS011;11674;52.428;13.584;2022-08-14T10:13:57;12.15;;;3.58;;
23015;SDS011;11674;52.428;13.584;2022-08-14T10:16:25;5.68;;;3.67;;
23015;SDS011;11674;52.428;13.584;2022-08-14T10:19:08;9.45;;;3.08;;
23015;SDS011;11674;52.428;13.584;2022-08-14T10:21:43;4.35;;;3.38;;
23015;SDS011;11674;52.428;13.584;2022-08-14T10:24:28;7.90;;;3.00;;
23015;SDS011;11674;52.428;13.584;2022-08-14T10:27:01;10.73;;;3.05;;
23015;SDS011;11674;52.428;13.584;2022-08-14T10:29:34;5.65;;;3.00;;
23015;SDS011;11674;52.428;13.584;2022-08-14T10:32:08;4.70;;;2.90;;
23015;SDS011;11674;52.428;13.584;2022-08-14T10:34:40;5.70;;;3.28;;
23015;SDS011;11674;52.428;13.584;2022-08-14T10:37:13;7.78;;;2.95;;
23015;SDS011;11674;52.428;13.584;2022-08-14T10:39:59;5.50;;;3.13;;
23015;SDS011;11674;52.428;13.584;2022-08-14T10:42:34;10.40;;;3.38;;
23015;SDS011;11674;52.428;13.584;2022-08-14T10:45:21;7.32;;;3.50;;
23015;SDS011;11674;52.428;13.584;2022-08-14T10:47:54;3.13;;;2.72;;
23015;SDS011;11674;52.428;13.584;2022-08-14T10:53:01;7.22;;;2.83;;
23015;SDS011;11674;52.428;13.584;2022-08-14T10:55:34;3.42;;;3.00;;
23015;SDS011;11674;52.428;13.584;2022-08-14T10:58:08;12.55;;;3.10;;
23015;SDS011;11674;52.428;13.584;2022-08-14T11:00:41;6.43;;;2.95;;
23015;SDS011;11674;52.428;13.584;2022-08-14T11:03:35;7.40;;;3.40;;
23015;SDS011;11674;52.428;13.584;2022-08-14T11:06:14;3.42;;;3.05;;
23015;SDS011;11674;52.428;13.584;2022-08-14T11:08:48;8.30;;;6.53;;
23015;SDS011;11674;52.428;13.584;2022-08-14T11:11:20;8.00;;;3.05;;
23015;SDS011;11674;52.428;13.584;2022-08-14T11:13:55;7.22;;;2.83;;
23015;SDS011;11674;52.428;13.584;2022-08-14T11:16:27;3.45;;;3.05;;
23015;SDS011;11674;52.428;13.584;2022-08-14T11:18:59;3.33;;;2.90;;
23015;SDS011;11674;52.428;13.584;2022-08-14T11:21:33;5.53;;;3.08;;
23015;SDS011;11674;52.428;13.584;2022-08-14T11:24:08;3.20;;;2.88;;
23015;SDS011;11674;52.428;13.584;2022-08-14T11:26:44;6.90;;;3.15;;
23015;SDS011;11674;52.428;13.584;2022-08-14T11:29:17;7.65;;;2.85;;
23015;SDS011;11674;52.428;13.584;2022-08-14T11:31:53;4.40;;;3.58;;
23015;SDS011;11674;52.428;13.584;2022-08-14T11:34:27;4.45;;;3.65;;
23015;SDS011;11674;52.428;13.584;2022-08-14T11:37:09;5.20;;;3.00;;
23015;SDS011;11674;52.428;13.584;2022-08-14T11:39:42;9.20;;;6.10;;
23015;SDS011;11674;52.428;13.584;2022-08-14T11:42:17;11.80;;;8.13;;
23015;SDS011;11674;52.428;13.584;2022-08-14T11:44:57;16.17;;;11.18;;
23015;SDS011;11674;52.428;13.584;2022-08-14T11:47:36;10.80;;;5.38;;
23015;SDS011;11674;52.428;13.584;2022-08-14T11:50:19;5.53;;;3.22;;
23015;SDS011;11674;52.428;13.584;2022-08-14T11:52:53;4.88;;;3.78;;
23015;SDS011;11674;52.428;13.584;2022-08-14T11:55:25;7.70;;;3.33;;
23015;SDS011;11674;52.428;13.584;2022-08-14T11:57:58;8.48;;;4.30;;
23015;SDS011;11674;52.428;13.584;2022-08-14T12:00:45;7.80;;;6.28;;
23015;SDS011;11674;52.428;13.584;2022-08-14T12:03:19;6.38;;;3.20;;
23015;SDS011;11674;52.428;13.584;2022-08-14T12:05:51;4.43;;;3.10;;
23015;SDS011;11674;52.428;13.584;2022-08-14T12:08:34;2.92;;;2.72;;
23015;SDS011;11674;52.428;13.584;2022-08-14T12:11:09;8.88;;;3.20;;
23015;SDS011;11674;52.428;13.584;2022-08-14T12:13:42;10.27;;;4.72;;
23015;SDS011;11674;52.428;13.584;2022-08-14T12:16:14;4.15;;;2.70;;
23015;SDS011;11674;52.428;13.584;2022-08-14T12:18:47;4.68;;;3.00;;
23015;SDS011;11674;52.428;13.584;2022-08-14T12:21:21;11.10;;;7.55;;
23015;SDS011;11674;52.428;13.584;2022-08-14T12:24:01;5.38;;;3.25;;
23015;SDS011;11674;52.428;13.584;2022-08-14T12:26:37;5.32;;;3.67;;
23015;SDS011;11674;52.428;13.584;2022-08-14T12:29:12;4.00;;;3.60;;
23015;SDS011;11674;52.428;13.584;2022-08-14T12:31:45;3.20;;;2.70;;
23015;SDS011;11674;52.428;13.584;2022-08-14T12:34:29;4.75;;;2.20;;
23015;SDS011;11674;52.428;13.584;2022-08-14T12:37:05;4.38;;;2.60;;
23015;SDS011;11674;52.428;13.584;2022-08-14T12:39:38;6.50;;;2.40;;
23015;SDS011;11674;52.428;13.584;2022-08-14T12:42:10;4.55;;;2.42;;
23015;SDS011;11674;52.428;13.584;2022-08-14T12:44:36;3.00;;;1.90;;
23015;SDS011;11674;52.428;13.584;2022-08-14T12:47:13;2.67;;;2.05;;
23015;SDS011;11674;52.428;13.584;2022-08-14T12:49:47;2.55;;;2.20;;
23015;SDS011;11674;52.428;13.584;2022-08-14T12:52:26;3.65;;;2.30;;
23015;SDS011;11674;52.428;13.584;2022-08-14T12:55:16;5.00;;;1.95;;
23015;SDS011;11674;52.428;13.584;2022-08-14T12:57:50;4.57;;;1.85;;
23015;SDS011;11674;52.428;13.584;2022-08-14T13:00:23;5.63;;;4.32;;
23015;SDS011;11674;52.428;13.584;2022-08-14T13:02:55;12.15;;;9.43;;
23015;SDS011;11674;52.428;13.584;2022-08-14T13:05:28;8.00;;;6.10;;
23015;SDS011;11674;52.428;13.584;2022-08-14T13:08:02;6.43;;;3.72;;
23015;SDS011;11674;52.428;13.584;2022-08-14T13:10:36;2.72;;;2.00;;
23015;SDS011;11674;52.428;13.584;2022-08-14T13:13:16;4.32;;;2.08;;
23015;SDS011;11674;52.428;13.584;2022-08-14T13:15:49;2.03;;;1.80;;
23015;SDS011;11674;52.428;13.584;2022-08-14T13:18:25;1.90;;;1.60;;
23015;SDS011;11674;52.428;13.584;2022-08-14T13:20:56;3.80;;;1.80;;
23015;SDS011;11674;52.428;13.584;2022-08-14T13:23:34;2.13;;;1.80;;
23015;SDS011;11674;52.428;13.584;2022-08-14T13:26:07;4.97;;;1.98;;
23015;SDS011;11674;52.428;13.584;2022-08-14T13:28:34;2.78;;;1.80;;
23015;SDS011;11674;52.428;13.584;2022-08-14T13:31:11;2.65;;;2.00;;
23015;SDS011;11674;52.428;13.584;2022-08-14T13:33:46;2.60;;;2.20;;
23015;SDS011;11674;52.428;13.584;2022-08-14T13:36:18;3.47;;;2.53;;
23015;SDS011;11674;52.428;13.584;2022-08-14T13:38:51;4.88;;;2.28;;
23015;SDS011;11674;52.428;13.584;2022-08-14T13:41:24;2.92;;;2.30;;
23015;SDS011;11674;52.428;13.584;2022-08-14T13:43:58;2.60;;;2.40;;
23015;SDS011;11674;52.428;13.584;2022-08-14T13:46:30;3.17;;;2.38;;
23015;SDS011;11674;52.428;13.584;2022-08-14T13:49:02;3.15;;;2.08;;
23015;SDS011;11674;52.428;13.584;2022-08-14T13:51:35;2.38;;;2.05;;
23015;SDS011;11674;52.428;13.584;2022-08-14T13:54:08;3.42;;;2.15;;
23015;SDS011;11674;52.428;13.584;2022-08-14T13:56:40;10.73;;;3.75;;
23015;SDS011;11674;52.428;13.584;2022-08-14T13:59:12;8.05;;;2.33;;
23015;SDS011;11674;52.428;13.584;2022-08-14T14:01:44;3.25;;;2.70;;
23015;SDS011;11674;52.428;13.584;2022-08-14T14:04:16;2.53;;;2.20;;
23015;SDS011;11674;52.428;13.584;2022-08-14T14:06:49;3.97;;;3.08;;
23015;SDS011;11674;52.428;13.584;2022-08-14T14:09:25;3.10;;;2.60;;
23015;SDS011;11674;52.428;13.584;2022-08-14T14:11:59;2.78;;;1.80;;
23015;SDS011;11674;52.428;13.584;2022-08-14T14:14:31;6.00;;;2.60;;
23015;SDS011;11674;52.428;13.584;2022-08-14T14:17:04;4.05;;;2.00;;
23015;SDS011;11674;52.428;13.584;2022-08-14T14:19:36;3.58;;;2.40;;
23015;SDS011;11674;52.428;13.584;2022-08-14T14:22:08;3.60;;;2.10;;
23015;SDS011;11674;52.428;13.584;2022-08-14T14:24:41;2.50;;;2.30;;
23015;SDS011;11674;52.428;13.584;2022-08-14T14:27:13;2.28;;;2.05;;
23015;SDS011;11674;52.428;13.584;2022-08-14T14:29:48;3.88;;;2.20;;
23015;SDS011;11674;52.428;13.584;2022-08-14T14:32:24;4.68;;;1.98;;
23015;SDS011;11674;52.428;13.584;2022-08-14T14:35:00;4.43;;;2.13;;
23015;SDS011;11674;52.428;13.584;2022-08-14T14:37:32;3.08;;;2.30;;
23015;SDS011;11674;52.428;13.584;2022-08-14T14:40:05;5.35;;;3.17;;
23015;SDS011;11674;52.428;13.584;2022-08-14T14:42:44;1.80;;;1.70;;
23015;SDS011;11674;52.428;13.584;2022-08-14T14:45:19;3.83;;;1.90;;
23015;SDS011;11674;52.428;13.584;2022-08-14T14:47:53;4.50;;;2.10;;
23015;SDS011;11674;52.428;13.584;2022-08-14T14:50:25;2.80;;;2.22;;
23015;SDS011;11674;52.428;13.584;2022-08-14T14:52:57;3.33;;;2.60;;
23015;SDS011;11674;52.428;13.584;2022-08-14T14:55:29;3.92;;;2.47;;
23015;SDS011;11674;52.428;13.584;2022-08-14T14:58:01;3.42;;;2.35;;
23015;SDS011;11674;52.428;13.584;2022-08-14T15:00:33;3.55;;;2.17;;
23015;SDS011;11674;52.428;13.584;2022-08-14T15:03:05;4.25;;;2.63;;
23015;SDS011;11674;52.428;13.584;2022-08-14T15:05:37;7.15;;;2.15;;
23015;SDS011;11674;52.428;13.584;2022-08-14T15:08:09;3.63;;;2.83;;
23015;SDS011;11674;52.428;13.584;2022-08-14T15:10:41;3.40;;;2.08;;
23015;SDS011;11674;52.428;13.584;2022-08-14T15:13:15;7.38;;;2.08;;
23015;SDS011;11674;52.428;13.584;2022-08-14T15:15:46;4.68;;;2.10;;
23015;SDS011;11674;52.428;13.584;2022-08-14T15:18:18;2.30;;;2.05;;
23015;SDS011;11674;52.428;13.584;2022-08-14T15:20:51;3.47;;;2.08;;